Time;durP1;ratioP1;P1;durP2;ratioP2;P2;SDS_P1;SDS_P2;PMS_P1;PMS_P2;Temp;Humidity;BMP_temperature;BMP_pressure;BME280_temperature;BME280_humidity;BME280_pressure;Samples;Min_cycle;Max_cycle;Signal;HPM_P1;HPM_P2
2022/10/29 00:02:04;;;;;;;17.67;7.05;;;12.30;99.90;;;;;;5046964;28;20031;-72
2022/10/29 00:04:30;;;;;;;17.45;6.72;;;12.40;99.90;;;;;;5046229;28;20040;-72
2022/10/29 00:06:56;;;;;;;14.88;6.65;;;12.40;99.90;;;;;;5061971;28;20029;-72
2022/10/29 00:09:21;;;;;;;15.85;7.05;;;12.30;99.90;;;;;;5045135;28;20049;-71
2022/10/29 00:11:47;;;;;;;17.27;6.57;;;12.30;99.90;;;;;;5047642;28;20448;-72
2022/10/29 00:14:12;;;;;;;17.33;6.35;;;12.20;99.90;;;;;;5046120;28;20041;-71
2022/10/29 00:16:39;;;;;;;14.50;6.43;;;12.20;99.90;;;;;;5046231;28;20032;-71
2022/10/29 00:19:06;;;;;;;20.13;6.53;;;12.20;99.90;;;;;;5045919;28;20045;-72
2022/10/29 00:21:33;;;;;;;14.23;6.28;;;12.20;99.90;;;;;;5045739;28;20461;-72
2022/10/29 00:23:58;;;;;;;13.82;6.18;;;12.20;99.90;;;;;;5045731;28;20047;-71
2022/10/29 00:26:24;;;;;;;15.82;5.88;;;12.20;99.90;;;;;;5045532;28;20037;-72
2022/10/29 00:28:54;;;;;;;16.40;6.85;;;12.20;99.90;;;;;;5046334;28;20033;-72
2022/10/29 00:31:24;;;;;;;18.90;5.93;;;12.20;99.90;;;;;;5027763;28;20455;-71
2022/10/29 00:33:52;;;;;;;16.63;6.40;;;12.20;99.90;;;;;;5046129;28;20039;-72
2022/10/29 00:36:22;;;;;;;21.88;6.35;;;12.20;99.90;;;;;;5045562;28;20080;-72
2022/10/29 00:38:48;;;;;;;14.55;5.65;;;12.20;99.90;;;;;;5047610;28;20476;-72
2022/10/29 00:41:16;;;;;;;14.10;5.72;;;12.20;99.90;;;;;;5046882;28;20121;-73
2022/10/29 00:44:14;;;;;;;16.65;5.97;;;12.20;99.90;;;;;;5047648;28;20041;-72
2022/10/29 00:46:42;;;;;;;16.75;5.75;;;12.10;99.90;;;;;;5046742;28;20060;-72
2022/10/29 00:49:10;;;;;;;11.32;5.75;;;12.00;99.90;;;;;;5047376;28;20074;-71
2022/10/29 00:51:37;;;;;;;17.50;5.70;;;11.90;99.90;;;;;;5047812;28;20474;-71
2022/10/29 00:54:08;;;;;;;16.02;5.88;;;11.80;99.90;;;;;;5046425;28;20112;-71
2022/10/29 00:56:38;;;;;;;14.68;5.53;;;11.80;99.90;;;;;;5044984;28;20071;-72
2022/10/29 00:59:07;;;;;;;18.70;6.20;;;11.70;99.90;;;;;;5041447;28;20040;-72
2022/10/29 01:01:33;;;;;;;17.15;5.80;;;11.70;99.90;;;;;;5044607;28;20020;-71
2022/10/29 01:03:59;;;;;;;18.60;7.70;;;11.70;99.90;;;;;;5048775;28;20115;-71
2022/10/29 01:06:27;;;;;;;18.83;6.70;;;11.70;99.90;;;;;;5048431;28;20028;-72
2022/10/29 01:08:52;;;;;;;14.02;5.68;;;11.60;99.90;;;;;;5042758;28;20366;-72
2022/10/29 01:11:36;;;;;;;16.48;6.63;;;11.50;99.90;;;;;;5050129;28;20031;-71
2022/10/29 01:14:20;;;;;;;14.43;5.95;;;11.50;99.90;;;;;;5050321;28;20113;-71
2022/10/29 01:17:23;;;;;;;13.15;5.63;;;11.40;99.90;;;;;;5049945;28;20477;-73
2022/10/29 01:19:57;;;;;;;16.25;6.18;;;11.40;99.90;;;;;;5049138;28;20040;-71
2022/10/29 01:22:42;;;;;;;19.25;6.43;;;11.40;99.90;;;;;;5050915;28;20091;-71
2022/10/29 01:25:39;;;;;;;23.25;7.15;;;11.40;99.90;;;;;;5049681;28;20064;-72
2022/10/29 01:28:16;;;;;;;14.27;5.78;;;11.40;99.90;;;;;;5034941;28;20109;-71
2022/10/29 01:31:15;;;;;;;14.45;6.40;;;11.40;99.90;;;;;;5044000;28;20067;-73
2022/10/29 01:33:49;;;;;;;22.42;5.97;;;11.40;99.90;;;;;;5051105;28;20525;-72
2022/10/29 01:36:32;;;;;;;18.05;6.82;;;11.40;99.90;;;;;;5049422;28;20025;-72
2022/10/29 01:39:19;;;;;;;16.08;7.10;;;11.30;99.90;;;;;;5051744;28;20065;-72
2022/10/29 01:41:51;;;;;;;14.45;6.07;;;11.20;99.90;;;;;;5047557;28;20028;-71
2022/10/29 01:44:34;;;;;;;15.35;6.07;;;11.20;99.90;;;;;;5049800;28;20071;-71
2022/10/29 01:47:13;;;;;;;18.35;6.78;;;11.30;99.90;;;;;;5049235;28;20468;-72
2022/10/29 01:49:43;;;;;;;14.30;6.13;;;11.30;99.90;;;;;;5051071;28;20036;-72
2022/10/29 01:52:12;;;;;;;14.70;6.90;;;11.20;99.90;;;;;;5031804;28;20033;-72
2022/10/29 01:54:43;;;;;;;13.90;6.60;;;11.20;99.90;;;;;;5048032;28;20037;-72
2022/10/29 01:57:27;;;;;;;13.25;6.10;;;11.20;99.90;;;;;;5049545;28;20037;-71
2022/10/29 01:59:55;;;;;;;17.45;6.85;;;11.20;99.90;;;;;;5048365;28;20036;-71
2022/10/29 02:02:36;;;;;;;18.48;7.20;;;11.30;99.90;;;;;;5050378;28;20032;-72
2022/10/29 02:05:27;;;;;;;21.40;7.18;;;11.40;99.90;;;;;;5048523;28;20509;-73
2022/10/29 02:08:14;;;;;;;22.65;6.63;;;11.40;99.90;;;;;;5049075;28;20144;-71
2022/10/29 02:11:11;;;;;;;13.05;5.97;;;11.50;99.90;;;;;;5047013;28;20039;-72
2022/10/29 02:13:45;;;;;;;15.68;6.22;;;11.40;99.90;;;;;;5034129;28;20643;-72
2022/10/29 02:16:11;;;;;;;13.25;5.78;;;11.30;99.90;;;;;;5050532;28;20155;-72
2022/10/29 02:18:45;;;;;;;14.13;6.10;;;11.30;99.90;;;;;;5047840;28;20021;-72
2022/10/29 02:21:17;;;;;;;10.45;5.35;;;11.30;99.90;;;;;;5050412;28;20037;-71
2022/10/29 02:23:43;;;;;;;19.00;5.97;;;11.30;99.90;;;;;;5047613;28;20025;-72
2022/10/29 02:26:09;;;;;;;11.35;5.38;;;11.30;99.90;;;;;;5050113;28;20044;-71
2022/10/29 02:28:35;;;;;;;11.82;5.43;;;11.30;99.90;;;;;;5048446;28;20060;-72
2022/10/29 02:31:01;;;;;;;17.52;6.95;;;11.30;99.90;;;;;;5048082;28;20060;-72
2022/10/29 02:33:26;;;;;;;11.52;5.63;;;11.30;99.90;;;;;;5047188;28;20055;-73
2022/10/29 02:35:52;;;;;;;14.60;5.53;;;11.20;99.90;;;;;;5049033;28;20370;-72
2022/10/29 02:38:17;;;;;;;12.25;5.70;;;11.20;99.90;;;;;;5049905;28;20090;-71
2022/10/29 02:40:43;;;;;;;17.50;5.53;;;11.30;99.90;;;;;;5047429;28;20116;-71
2022/10/29 02:43:09;;;;;;;15.50;5.50;;;11.30;99.90;;;;;;5047384;28;20033;-72
2022/10/29 02:45:34;;;;;;;16.25;6.07;;;11.30;99.90;;;;;;5047150;28;20569;-71
2022/10/29 02:48:00;;;;;;;15.10;5.97;;;11.20;99.90;;;;;;5048933;28;20032;-73
2022/10/29 02:50:25;;;;;;;14.88;5.68;;;11.30;99.90;;;;;;5047910;28;20440;-73
2022/10/29 02:52:51;;;;;;;18.65;5.70;;;11.30;99.90;;;;;;5037640;28;20072;-72
2022/10/29 02:55:17;;;;;;;13.25;5.03;;;11.30;99.90;;;;;;5049475;28;20041;-72
2022/10/29 02:57:43;;;;;;;16.90;5.07;;;11.20;99.90;;;;;;5047325;28;20381;-73
2022/10/29 03:00:10;;;;;;;11.55;5.18;;;11.10;99.90;;;;;;5048611;28;20088;-71
2022/10/29 03:02:35;;;;;;;11.80;4.75;;;11.10;99.90;;;;;;5048347;28;20055;-73
2022/10/29 03:05:01;;;;;;;22.38;5.20;;;11.10;99.90;;;;;;5048970;28;20037;-73
2022/10/29 03:07:27;;;;;;;12.63;5.03;;;11.00;99.90;;;;;;5048863;28;20083;-70
2022/10/29 03:09:52;;;;;;;12.55;5.15;;;11.00;99.90;;;;;;5048955;28;20037;-71
2022/10/29 03:12:18;;;;;;;14.35;5.18;;;11.00;99.90;;;;;;5048316;28;20083;-72
2022/10/29 03:14:43;;;;;;;12.82;5.32;;;10.90;99.90;;;;;;5047991;28;20037;-71
2022/10/29 03:17:09;;;;;;;10.55;4.72;;;10.90;99.90;;;;;;5049061;28;20436;-71
2022/10/29 03:19:35;;;;;;;15.13;5.25;;;10.80;99.90;;;;;;5047055;28;20033;-72
2022/10/29 03:22:00;;;;;;;12.88;5.15;;;10.80;99.90;;;;;;5047199;28;20029;-72
2022/10/29 03:24:26;;;;;;;14.02;4.70;;;10.80;99.90;;;;;;5047672;28;20814;-72
2022/10/29 03:26:51;;;;;;;16.98;5.47;;;10.80;99.90;;;;;;5046730;28;20078;-72
2022/10/29 03:29:17;;;;;;;10.90;5.43;;;10.80;99.90;;;;;;5048513;28;20493;-72
2022/10/29 03:31:43;;;;;;;16.60;5.10;;;10.90;99.90;;;;;;5047386;28;20037;-72
2022/10/29 03:34:08;;;;;;;16.67;5.03;;;10.90;99.90;;;;;;5047097;28;20036;-72
2022/10/29 03:36:34;;;;;;;12.50;5.10;;;10.90;99.90;;;;;;5047145;28;20120;-72
2022/10/29 03:38:59;;;;;;;13.73;5.53;;;11.00;99.90;;;;;;5048188;28;20041;-71
2022/10/29 03:41:25;;;;;;;13.55;5.00;;;11.00;99.90;;;;;;5047018;28;20025;-71
2022/10/29 03:43:51;;;;;;;15.10;5.32;;;11.00;99.90;;;;;;5047240;28;20037;-72
2022/10/29 03:46:16;;;;;;;20.45;5.95;;;11.00;99.90;;;;;;5048302;28;20060;-73
2022/10/29 03:48:42;;;;;;;15.88;6.63;;;11.00;99.90;;;;;;5047778;28;20036;-72
2022/10/29 03:51:09;;;;;;;12.65;5.75;;;11.00;99.90;;;;;;5045962;28;20486;-72
2022/10/29 03:53:35;;;;;;;11.75;5.38;;;11.00;99.90;;;;;;5042065;28;20037;-72
2022/10/29 03:56:02;;;;;;;16.52;5.45;;;11.10;99.90;;;;;;5049380;28;20021;-73
2022/10/29 03:58:28;;;;;;;10.18;5.30;;;11.10;99.90;;;;;;5045634;28;20029;-72
2022/10/29 04:00:53;;;;;;;14.82;4.47;;;11.00;99.90;;;;;;5046545;28;20040;-71
2022/10/29 04:03:19;;;;;;;11.27;4.80;;;11.00;99.90;;;;;;5047473;28;20029;-72
2022/10/29 04:05:44;;;;;;;10.02;4.65;;;11.00;99.90;;;;;;5044696;28;20060;-72
2022/10/29 04:08:10;;;;;;;9.32;4.90;;;11.00;99.90;;;;;;5048477;28;20040;-72
2022/10/29 04:10:36;;;;;;;16.63;5.75;;;11.00;99.90;;;;;;5046024;28;20036;-73
2022/10/29 04:13:01;;;;;;;14.75;5.78;;;11.00;99.90;;;;;;5047332;28;20040;-71
2022/10/29 04:15:27;;;;;;;14.63;5.05;;;11.10;99.90;;;;;;5045122;28;20041;-72
2022/10/29 04:17:52;;;;;;;16.33;5.47;;;11.00;99.90;;;;;;5048458;28;20370;-73
2022/10/29 04:20:18;;;;;;;16.27;5.93;;;11.00;99.90;;;;;;5047472;28;20115;-73
2022/10/29 04:22:43;;;;;;;10.75;4.63;;;10.90;99.90;;;;;;5046379;28;20107;-73
2022/10/29 04:25:09;;;;;;;12.68;5.07;;;10.90;99.90;;;;;;5045968;28;20025;-74
2022/10/29 04:27:35;;;;;;;17.42;4.93;;;10.90;99.90;;;;;;5043699;28;20029;-72
2022/10/29 04:30:01;;;;;;;13.32;5.57;;;10.90;99.90;;;;;;5047472;28;20033;-72
2022/10/29 04:32:27;;;;;;;19.80;5.35;;;10.90;99.90;;;;;;5045689;28;20576;-70
2022/10/29 04:34:52;;;;;;;14.27;5.20;;;11.00;99.90;;;;;;5045166;28;20033;-73
2022/10/29 04:37:18;;;;;;;15.77;5.47;;;11.00;99.90;;;;;;5046997;28;20075;-73
2022/10/29 04:39:43;;;;;;;17.73;5.70;;;11.10;99.90;;;;;;5045640;28;20108;-74
2022/10/29 04:42:09;;;;;;;14.60;5.90;;;11.10;99.90;;;;;;5045451;28;20032;-73
2022/10/29 04:44:34;;;;;;;14.48;6.70;;;11.20;99.90;;;;;;5045411;28;20040;-72
2022/10/29 04:47:00;;;;;;;13.30;5.57;;;11.20;99.90;;;;;;5046644;28;20045;-71
2022/10/29 04:49:26;;;;;;;17.90;7.28;;;11.30;99.90;;;;;;5062175;28;20037;-72
2022/10/29 04:51:51;;;;;;;31.65;12.07;;;11.30;99.90;;;;;;5048108;28;20029;-73
2022/10/29 04:54:17;;;;;;;21.27;9.20;;;11.30;99.90;;;;;;5045632;28;20480;-73
2022/10/29 04:56:43;;;;;;;17.42;5.65;;;11.30;99.90;;;;;;5046820;28;20029;-72
2022/10/29 04:59:08;;;;;;;11.32;5.63;;;11.30;99.90;;;;;;5047604;28;20442;-72
2022/10/29 05:01:34;;;;;;;14.27;5.10;;;11.20;99.90;;;;;;5046595;28;20409;-73
2022/10/29 05:03:59;;;;;;;10.50;5.00;;;11.10;99.90;;;;;;5046288;28;20107;-73
2022/10/29 05:06:25;;;;;;;10.02;4.97;;;11.10;99.90;;;;;;5047042;28;20028;-71
2022/10/29 05:08:51;;;;;;;11.88;5.18;;;11.00;99.90;;;;;;5047876;28;20108;-74
2022/10/29 05:11:16;;;;;;;13.93;5.28;;;11.10;99.90;;;;;;5047350;28;20029;-73
2022/10/29 05:13:44;;;;;;;15.93;5.53;;;11.00;99.90;;;;;;5045093;28;20036;-72
2022/10/29 05:16:09;;;;;;;14.43;5.45;;;11.00;99.90;;;;;;5047340;28;20367;-72
2022/10/29 05:18:36;;;;;;;15.98;5.70;;;11.00;99.90;;;;;;5047549;28;20087;-73
2022/10/29 05:21:02;;;;;;;11.75;5.43;;;11.00;99.90;;;;;;5046255;28;20523;-71
2022/10/29 05:23:27;;;;;;;10.20;5.63;;;11.10;99.90;;;;;;5043205;28;20100;-72
2022/10/29 05:25:54;;;;;;;16.63;5.68;;;11.10;99.90;;;;;;5046202;28;20107;-71
2022/10/29 05:28:21;;;;;;;12.15;5.38;;;11.10;99.90;;;;;;5043031;28;20083;-73
2022/10/29 05:30:48;;;;;;;23.58;6.22;;;11.10;99.90;;;;;;5047628;28;20044;-73
2022/10/29 05:33:17;;;;;;;15.55;6.20;;;11.10;99.90;;;;;;5046435;28;20041;-72
2022/10/29 05:35:43;;;;;;;19.67;6.88;;;11.20;99.90;;;;;;5045461;28;20029;-73
2022/10/29 05:38:13;;;;;;;17.88;6.85;;;11.20;99.90;;;;;;5046182;28;20382;-72
2022/10/29 05:40:39;;;;;;;17.58;6.97;;;11.20;99.90;;;;;;5043581;28;20037;-73
2022/10/29 05:43:04;;;;;;;15.90;6.35;;;11.20;99.90;;;;;;5045704;28;20130;-73
2022/10/29 05:45:30;;;;;;;16.33;6.10;;;11.30;99.90;;;;;;5042165;28;20045;-73
2022/10/29 05:47:57;;;;;;;13.73;6.03;;;11.30;99.90;;;;;;5046288;28;20044;-72
2022/10/29 05:50:24;;;;;;;13.90;6.20;;;11.30;99.90;;;;;;5046152;28;20395;-74
2022/10/29 05:52:57;;;;;;;15.27;6.20;;;11.30;99.90;;;;;;5048645;28;20469;-73
2022/10/29 05:55:24;;;;;;;17.05;6.40;;;11.30;99.90;;;;;;5045444;28;20033;-73
2022/10/29 05:57:57;;;;;;;20.60;6.78;;;11.30;99.90;;;;;;5047588;28;20017;-72
2022/10/29 06:00:24;;;;;;;18.55;6.63;;;11.20;99.90;;;;;;5047703;28;20040;-73
2022/10/29 06:02:50;;;;;;;16.80;6.18;;;11.10;99.90;;;;;;5048546;28;20032;-72
2022/10/29 06:05:15;;;;;;;18.23;6.50;;;11.10;99.90;;;;;;5043459;28;20075;-72
2022/10/29 06:07:41;;;;;;;17.98;7.03;;;11.10;99.90;;;;;;5048055;28;20037;-72
2022/10/29 06:10:07;;;;;;;21.27;6.75;;;11.10;99.90;;;;;;5038888;28;20036;-72
2022/10/29 06:12:33;;;;;;;16.77;5.55;;;11.10;99.90;;;;;;5043111;28;20044;-71
2022/10/29 06:14:59;;;;;;;18.10;6.15;;;11.00;99.90;;;;;;5048918;28;20033;-72
2022/10/29 06:17:25;;;;;;;24.63;8.52;;;11.00;99.90;;;;;;5049662;28;20079;-73
2022/10/29 06:19:51;;;;;;;22.55;6.10;;;11.00;99.90;;;;;;5047736;28;20645;-73
2022/10/29 06:22:17;;;;;;;12.20;6.45;;;11.00;99.90;;;;;;5050054;28;20470;-72
2022/10/29 06:24:42;;;;;;;16.05;6.05;;;10.90;99.90;;;;;;5063111;28;20032;-71
2022/10/29 06:27:08;;;;;;;17.30;6.20;;;10.90;99.90;;;;;;5048830;28;20043;-72
2022/10/29 06:29:33;;;;;;;16.70;6.53;;;10.90;99.90;;;;;;5048721;28;20115;-71
2022/10/29 06:31:59;;;;;;;16.35;6.50;;;10.90;99.90;;;;;;5045871;28;20036;-72
2022/10/29 06:34:25;;;;;;;19.30;6.15;;;10.90;99.90;;;;;;5051129;28;20067;-72
2022/10/29 06:36:50;;;;;;;17.73;6.88;;;10.90;99.90;;;;;;5044355;28;20057;-71
2022/10/29 06:39:16;;;;;;;22.88;6.88;;;10.90;99.90;;;;;;5049677;28;20045;-72
2022/10/29 06:41:41;;;;;;;18.67;6.82;;;10.90;99.90;;;;;;5048730;28;20039;-71
2022/10/29 06:44:07;;;;;;;15.77;6.38;;;11.00;99.90;;;;;;5047345;28;20025;-73
2022/10/29 06:46:33;;;;;;;13.52;6.53;;;10.90;99.90;;;;;;5043193;28;20049;-70
2022/10/29 06:49:00;;;;;;;20.08;7.15;;;11.00;99.90;;;;;;5048409;28;20052;-73
2022/10/29 06:51:25;;;;;;;13.77;6.78;;;11.00;99.90;;;;;;5047852;28;20051;-73
2022/10/29 06:53:52;;;;;;;16.15;6.82;;;11.00;99.90;;;;;;5048752;28;20221;-72
2022/10/29 06:56:18;;;;;;;21.77;10.57;;;11.10;99.90;;;;;;5048123;28;20090;-72
2022/10/29 06:58:44;;;;;;;24.13;8.00;;;11.10;99.90;;;;;;5047217;28;20509;-72
2022/10/29 07:01:10;;;;;;;17.15;6.82;;;11.10;99.90;;;;;;5046405;28;20037;-71
2022/10/29 07:03:35;;;;;;;17.70;6.90;;;11.10;99.90;;;;;;5048136;28;20029;-70
2022/10/29 07:06:01;;;;;;;16.60;6.55;;;11.10;99.90;;;;;;5043912;28;20051;-72
2022/10/29 07:08:27;;;;;;;19.00;6.82;;;11.10;99.90;;;;;;5044555;28;20032;-75
2022/10/29 07:10:54;;;;;;;23.83;6.70;;;11.10;99.90;;;;;;5040598;28;20025;-76
2022/10/29 07:13:19;;;;;;;16.52;6.80;;;11.20;99.90;;;;;;5047991;28;20029;-69
2022/10/29 07:15:45;;;;;;;14.10;6.53;;;11.20;99.90;;;;;;5046284;28;20040;-73
2022/10/29 07:18:11;;;;;;;17.17;6.90;;;11.20;99.90;;;;;;5040743;28;20086;-75
2022/10/29 07:20:39;;;;;;;18.30;6.75;;;11.30;99.90;;;;;;5044159;28;20043;-69
2022/10/29 07:23:05;;;;;;;13.82;5.95;;;11.30;99.90;;;;;;5047400;28;20398;-74
2022/10/29 07:25:31;;;;;;;20.10;6.85;;;11.30;99.90;;;;;;5049176;28;20025;-75
2022/10/29 07:28:15;;;;;;;16.80;6.38;;;11.40;99.90;;;;;;5049068;28;20037;-73
2022/10/29 07:30:41;;;;;;;18.60;5.95;;;11.40;99.90;;;;;;5046516;28;20076;-74
2022/10/29 07:33:07;;;;;;;16.35;6.40;;;11.50;99.90;;;;;;5048997;28;20037;-73
2022/10/29 07:35:34;;;;;;;18.63;7.97;;;11.60;99.90;;;;;;5046555;28;20105;-79
2022/10/29 07:38:05;;;;;;;17.73;7.78;;;11.70;99.90;;;;;;5046902;28;20029;-72
2022/10/29 07:40:30;;;;;;;25.35;8.63;;;11.80;99.90;;;;;;5048067;28;20481;-72
2022/10/29 07:42:56;;;;;;;22.45;7.18;;;11.90;99.90;;;;;;5033492;28;20029;-74
2022/10/29 07:45:22;;;;;;;15.02;6.63;;;12.00;99.90;;;;;;5037007;28;20053;-74
2022/10/29 07:47:47;;;;;;;20.90;6.93;;;12.00;99.90;;;;;;5047993;28;20061;-75
2022/10/29 07:50:13;;;;;;;18.45;8.25;;;12.10;99.90;;;;;;5046363;28;20083;-75
2022/10/29 07:52:40;;;;;;;19.00;6.30;;;12.20;99.90;;;;;;5044891;28;20036;-75
2022/10/29 07:55:07;;;;;;;20.42;8.35;;;12.30;99.90;;;;;;5043827;28;20025;-76
2022/10/29 07:57:32;;;;;;;23.67;7.57;;;12.30;99.90;;;;;;5044919;28;20462;-74
2022/10/29 07:59:58;;;;;;;18.38;6.30;;;12.40;99.90;;;;;;5043590;28;20033;-75
2022/10/29 08:02:24;;;;;;;13.85;6.50;;;12.50;99.90;;;;;;5041078;28;20041;-76
2022/10/29 08:04:49;;;;;;;18.10;6.60;;;12.50;99.90;;;;;;5042133;28;20367;-76
2022/10/29 08:07:15;;;;;;;18.42;6.90;;;12.60;99.90;;;;;;5042414;28;20044;-76
2022/10/29 08:09:41;;;;;;;15.13;7.43;;;12.60;99.90;;;;;;5042554;28;20071;-76
2022/10/29 08:12:09;;;;;;;22.48;7.10;;;12.80;99.90;;;;;;5037985;28;20037;-75
2022/10/29 08:14:35;;;;;;;14.13;6.28;;;12.90;99.90;;;;;;5043407;28;20432;-76
2022/10/29 08:17:01;;;;;;;16.02;7.40;;;13.00;99.90;;;;;;5047663;28;20029;-76
2022/10/29 08:19:28;;;;;;;19.55;6.95;;;13.10;99.90;;;;;;5047928;28;20064;-75
2022/10/29 08:21:57;;;;;;;23.42;7.07;;;13.20;99.90;;;;;;5048068;28;20075;-76
2022/10/29 08:24:22;;;;;;;22.60;6.55;;;13.30;99.90;;;;;;5048699;28;20031;-74
2022/10/29 08:26:50;;;;;;;17.75;7.18;;;13.50;99.90;;;;;;5048044;28;20025;-75
2022/10/29 08:29:15;;;;;;;14.73;7.18;;;13.60;99.90;;;;;;5047911;28;20029;-75
2022/10/29 08:31:41;;;;;;;24.20;7.75;;;13.80;99.90;;;;;;5045320;28;20029;-77
2022/10/29 08:34:07;;;;;;;25.58;7.10;;;14.00;99.90;;;;;;5048538;28;20029;-74
2022/10/29 08:36:32;;;;;;;16.63;6.85;;;14.20;99.90;;;;;;5047682;28;20032;-74
2022/10/29 08:38:58;;;;;;;19.10;6.45;;;14.40;99.90;;;;;;5048095;28;20028;-76
2022/10/29 08:41:51;;;;;;;19.40;6.43;;;14.60;99.90;;;;;;5068659;28;20584;-76
2022/10/29 08:44:33;;;;;;;18.13;6.50;;;14.90;99.90;;;;;;5058461;28;20037;-76
2022/10/29 08:47:14;;;;;;;13.50;6.53;;;15.00;99.90;;;;;;5047387;28;20044;-76
2022/10/29 08:50:08;;;;;;;20.90;7.07;;;15.30;99.90;;;;;;5047682;28;20373;-75
2022/10/29 08:52:37;;;;;;;17.90;7.43;;;15.50;99.90;;;;;;5046498;28;20033;-73
2022/10/29 08:55:06;;;;;;;12.15;6.57;;;15.80;99.90;;;;;;5047614;28;20610;-73
2022/10/29 08:57:37;;;;;;;19.92;7.65;;;16.10;99.90;;;;;;5046840;28;20042;-73
2022/10/29 09:00:06;;;;;;;22.45;6.18;;;16.30;99.90;;;;;;5040271;28;20041;-72
2022/10/29 09:02:31;;;;;;;19.65;7.15;;;16.60;99.90;;;;;;5044339;28;20029;-74
2022/10/29 09:04:58;;;;;;;17.85;5.72;;;16.80;99.90;;;;;;5043625;28;20533;-73
2022/10/29 09:07:57;;;;;;;17.70;6.30;;;17.00;99.90;;;;;;5044019;28;20393;-72
2022/10/29 09:10:40;;;;;;;14.45;6.20;;;17.20;99.90;;;;;;5034182;28;20041;-72
2022/10/29 09:13:21;;;;;;;30.02;6.88;;;17.40;99.90;;;;;;5042908;28;20037;-68
2022/10/29 09:16:17;;;;;;;16.90;6.25;;;17.60;99.90;;;;;;5051466;28;20037;-73
2022/10/29 09:19:04;;;;;;;16.83;6.50;;;17.80;99.90;;;;;;5043101;28;20029;-71
2022/10/29 09:21:39;;;;;;;21.92;5.95;;;18.00;99.90;;;;;;5047660;28;20052;-73
2022/10/29 09:24:25;;;;;;;15.73;5.95;;;18.20;99.90;;;;;;5046019;28;20036;-73
2022/10/29 09:27:15;;;;;;;18.83;5.82;;;18.30;99.90;;;;;;5046608;28;20111;-71
2022/10/29 09:29:55;;;;;;;21.10;5.93;;;18.50;99.90;;;;;;5051000;28;20025;-69
2022/10/29 09:32:23;;;;;;;;;;;18.70;99.90;;;;;;5053352;28;20064;-69
2022/10/29 09:34:53;;;;;;;17.30;6.18;;;18.60;99.90;;;;;;5047351;28;19919;-71
2022/10/29 09:37:47;;;;;;;16.92;6.60;;;18.60;99.90;;;;;;5047593;28;20051;-72
2022/10/29 09:40:37;;;;;;;18.20;5.85;;;18.70;99.90;;;;;;5050693;28;20068;-72
2022/10/29 09:43:33;;;;;;;13.75;5.90;;;18.70;99.90;;;;;;5036948;28;20025;-69
2022/10/29 09:46:30;;;;;;;21.73;6.18;;;18.70;99.90;;;;;;5049319;28;20060;-71
2022/10/29 09:48:56;;;;;;;22.45;5.78;;;18.80;99.90;;;;;;5059042;28;20551;-70
2022/10/29 09:51:41;;;;;;;27.80;6.22;;;19.00;99.90;;;;;;5050893;28;20032;-70
2022/10/29 09:54:07;;;;;;;21.20;6.68;;;19.30;99.90;;;;;;5048478;28;20108;-71
2022/10/29 09:56:33;;;;;;;14.90;4.82;;;19.60;99.90;;;;;;5048635;28;20025;-72
2022/10/29 09:59:20;;;;;;;21.35;5.15;;;19.80;99.90;;;;;;5034788;28;20092;-72
2022/10/29 10:01:46;;;;;;;18.83;5.47;;;20.00;99.90;;;;;;5044021;28;20441;-71
2022/10/29 10:04:25;;;;;;;16.38;4.95;;;20.00;99.90;;;;;;5053037;28;20044;-70
2022/10/29 10:07:15;;;;;;;24.30;5.55;;;20.10;99.90;;;;;;5053133;28;20044;-71
2022/10/29 10:09:52;;;;;;;24.83;5.53;;;20.10;99.90;;;;;;5044510;28;20032;-69
2022/10/29 10:12:20;;;;;;;21.52;5.50;;;20.30;99.90;;;;;;5048339;28;20082;-73
2022/10/29 10:14:47;;;;;;;18.38;5.30;;;20.50;99.90;;;;;;5049785;28;20040;-76
2022/10/29 10:17:13;;;;;;;25.73;5.50;;;20.70;99.90;;;;;;5034203;28;20036;-71
2022/10/29 10:19:44;;;;;;;13.90;4.40;;;20.90;99.90;;;;;;5050000;28;20045;-75
2022/10/29 10:22:20;;;;;;;15.18;4.80;;;21.10;99.90;;;;;;5051658;28;20473;-74
2022/10/29 10:24:47;;;;;;;18.67;4.55;;;21.30;99.90;;;;;;5048243;28;20028;-71
2022/10/29 10:27:18;;;;;;;21.35;5.50;;;21.50;99.90;;;;;;5046521;28;20043;-75
2022/10/29 10:30:04;;;;;;;23.98;4.30;;;21.60;99.90;;;;;;5045484;28;21913;-69
2022/10/29 10:32:30;;;;;;;18.00;4.93;;;21.80;99.90;;;;;;5041884;28;20028;-73
2022/10/29 10:34:56;;;;;;;16.75;4.50;;;22.00;99.90;;;;;;5048788;28;20032;-72
2022/10/29 10:37:23;;;;;;;20.27;3.85;;;22.10;99.90;;;;;;5048374;28;20037;-74
2022/10/29 10:39:59;;;;;;;15.40;4.13;;;22.30;99.90;;;;;;5050632;28;20415;-73
2022/10/29 10:42:30;;;;;;;24.55;4.82;;;22.50;99.90;;;;;;5039350;28;20072;-73
2022/10/29 10:45:15;;;;;;;18.75;5.10;;;22.60;99.90;;;;;;5044173;28;20031;-74
2022/10/29 10:47:44;;;;;;;20.15;4.60;;;22.90;99.90;;;;;;5044735;28;20056;-73
2022/10/29 10:50:35;;;;;;;21.25;4.38;;;23.10;99.90;;;;;;5043950;28;20033;-74
2022/10/29 10:53:15;;;;;;;10.70;4.15;;;23.30;99.90;;;;;;5046246;28;20028;-73
2022/10/29 10:55:53;;;;;;;21.92;4.78;;;23.40;99.90;;;;;;5055336;28;20469;-74
2022/10/29 10:58:21;;;;;;;14.73;4.50;;;23.40;99.90;;;;;;5055621;28;20132;-72
2022/10/29 11:00:57;;;;;;;19.35;5.43;;;23.40;99.90;;;;;;5042871;28;20051;-73
2022/10/29 11:03:44;;;;;;;13.93;4.72;;;23.50;99.90;;;;;;5048104;28;20116;-73
2022/10/29 11:06:16;;;;;;;22.83;4.90;;;23.60;99.90;;;;;;5047655;28;20060;-73
2022/10/29 11:09:15;;;;;;;15.00;4.60;;;23.60;99.90;;;;;;5046971;28;20040;-73
2022/10/29 11:11:56;;;;;;;16.35;4.75;;;23.80;99.90;;;;;;5037635;28;20128;-73
2022/10/29 11:14:36;;;;;;;12.27;4.68;;;24.10;99.90;;;;;;5051843;28;20045;-73
2022/10/29 11:17:03;;;;;;;;;;;24.30;99.90;;;;;;5045394;28;20029;-74
2022/10/29 11:19:46;;;;;;;19.58;4.78;;;24.30;99.90;;;;;;5045400;28;20673;-72
2022/10/29 11:22:23;;;;;;;16.20;5.10;;;24.30;99.90;;;;;;5046700;28;20040;-73
2022/10/29 11:24:57;;;;;;;17.10;4.75;;;24.20;99.90;;;;;;5048621;28;20029;-72
2022/10/29 11:27:42;;;;;;;19.83;4.57;;;24.30;99.90;;;;;;5046344;28;20797;-72
2022/10/29 11:30:17;;;;;;;27.10;5.68;;;24.50;99.90;;;;;;5047548;28;20508;-72
2022/10/29 11:33:08;;;;;;;13.45;4.70;;;24.60;99.90;;;;;;5044949;28;20028;-71
2022/10/29 11:35:44;;;;;;;16.35;4.88;;;24.80;99.90;;;;;;5046718;28;20040;-73
2022/10/29 11:38:23;;;;;;;14.75;4.63;;;24.90;99.90;;;;;;5046258;28;20083;-72
2022/10/29 11:40:52;;;;;;;16.20;4.18;;;25.20;99.90;;;;;;5046065;28;20044;-71
2022/10/29 11:43:19;;;;;;;19.58;4.80;;;25.40;99.90;;;;;;5044906;28;20056;-72
2022/10/29 11:46:13;;;;;;;17.38;4.80;;;25.50;99.90;;;;;;5044513;28;20049;-73
2022/10/29 11:48:57;;;;;;;17.95;4.85;;;25.70;99.90;;;;;;5046417;28;20029;-72
2022/10/29 11:51:43;;;;;;;17.27;4.35;;;25.80;99.90;;;;;;5044863;28;20033;-71
2022/10/29 11:54:15;;;;;;;18.58;4.90;;;26.00;99.90;;;;;;5040883;28;20129;-73
2022/10/29 11:56:43;;;;;;;18.33;4.70;;;26.20;99.90;;;;;;5045398;28;20769;-72
2022/10/29 11:59:29;;;;;;;15.45;5.30;;;26.40;99.90;;;;;;5047481;28;20032;-73
2022/10/29 12:02:57;;;;;;;26.85;5.13;;;26.50;99.90;;;;;;5041566;28;20068;-74
2022/10/29 12:05:43;;;;;;;15.07;4.18;;;26.50;99.70;;;;;;4992459;28;20048;-74
2022/10/29 12:08:14;;;;;;;13.70;4.22;;;26.60;99.10;;;;;;5020200;28;20215;-73
2022/10/29 12:11:22;;;;;;;22.95;4.68;;;26.70;98.10;;;;;;5031697;28;20049;-73
2022/10/29 12:13:53;;;;;;;22.48;4.70;;;27.00;99.90;;;;;;5033313;28;20044;-72
2022/10/29 12:16:56;;;;;;;26.60;6.03;;;26.90;97.30;;;;;;5041842;28;20037;-72
2022/10/29 12:19:49;;;;;;;20.17;5.20;;;26.80;97.70;;;;;;5044469;28;20124;-73
2022/10/29 12:22:36;;;;;;;18.95;4.78;;;26.80;97.60;;;;;;5043289;28;20040;-71
2022/10/29 12:25:20;;;;;;;22.48;4.50;;;27.00;97.20;;;;;;5046888;28;20442;-71
2022/10/29 12:28:32;;;;;;;13.18;3.75;;;27.20;97.00;;;;;;5045545;28;20091;-72
2022/10/29 12:30:58;;;;;;;17.48;4.28;;;27.20;93.90;;;;;;5024539;28;20099;-72
2022/10/29 12:33:31;;;;;;;28.80;4.00;;;27.20;95.20;;;;;;5020325;28;20041;-71
2022/10/29 12:36:12;;;;;;;20.58;3.97;;;27.30;93.70;;;;;;5022919;28;20059;-73
2022/10/29 12:38:48;;;;;;;17.33;3.58;;;27.40;92.70;;;;;;5018515;28;20047;-73
2022/10/29 12:41:22;;;;;;;18.92;4.05;;;27.60;96.20;;;;;;5022902;28;20043;-73
2022/10/29 12:43:50;;;;;;;17.50;3.95;;;27.70;94.40;;;;;;5022317;28;20041;-72
2022/10/29 12:46:39;;;;;;;21.15;3.90;;;27.60;90.40;;;;;;5019399;28;20115;-70
2022/10/29 12:49:20;;;;;;;21.90;4.23;;;27.60;91.60;;;;;;5018708;28;20496;-72
2022/10/29 12:52:02;;;;;;;15.60;4.18;;;27.40;88.00;;;;;;4997871;28;20098;-71
2022/10/29 12:54:39;;;;;;;20.33;4.05;;;27.50;91.20;;;;;;5023664;28;20232;-75
2022/10/29 12:57:33;;;;;;;18.52;4.60;;;27.40;90.30;;;;;;5022838;28;20479;-73
2022/10/29 13:00:29;;;;;;;18.15;4.03;;;27.20;87.40;;;;;;5010725;28;20471;-71
2022/10/29 13:02:55;;;;;;;19.33;4.72;;;27.20;87.20;;;;;;5048194;28;20037;-71